sensor_id;sensor_type;location;lat;lon;timestamp;temperature;humidity
17992;DHT22;9121;50.926;5.340;2024-02-15T00:02:11;13.00;99.90
17992;DHT22;9121;50.926;5.340;2024-02-15T00:04:39;13.00;99.90
17992;DHT22;9121;50.926;5.340;2024-02-15T00:07:06;13.00;99.90
17992;DHT22;9121;50.926;5.340;2024-02-15T00:09:33;13.00;99.90
17992;DHT22;9121;50.926;5.340;2024-02-15T00:12:00;13.00;99.90
17992;DHT22;9121;50.926;5.340;2024-02-15T00:14:27;13.00;99.90
17992;DHT22;9121;50.926;5.340;2024-02-15T00:16:54;13.00;99.90
17992;DHT22;9121;50.926;5.340;2024-02-15T00:19:21;13.00;99.90
17992;DHT22;9121;50.926;5.340;2024-02-15T00:21:50;13.00;99.90
17992;DHT22;9121;50.926;5.340;2024-02-15T00:24:17;13.00;99.90
17992;DHT22;9121;50.926;5.340;2024-02-15T00:26:45;13.00;99.90
17992;DHT22;9121;50.926;5.340;2024-02-15T00:29:12;13.00;99.90
17992;DHT22;9121;50.926;5.340;2024-02-15T00:31:39;13.00;99.90
17992;DHT22;9121;50.926;5.340;2024-02-15T00:34:06;13.00;99.90
17992;DHT22;9121;50.926;5.340;2024-02-15T00:36:34;13.00;99.90
17992;DHT22;9121;50.926;5.340;2024-02-15T00:39:02;13.00;99.90
17992;DHT22;9121;50.926;5.340;2024-02-15T00:41:32;13.00;99.90
17992;DHT22;9121;50.926;5.340;2024-02-15T00:44:00;13.10;99.90
17992;DHT22;9121;50.926;5.340;2024-02-15T00:46:26;13.10;99.90
17992;DHT22;9121;50.926;5.340;2024-02-15T00:48:54;13.10;99.90
17992;DHT22;9121;50.926;5.340;2024-02-15T00:51:21;13.10;99.90
17992;DHT22;9121;50.926;5.340;2024-02-15T00:53:48;13.10;99.90
17992;DHT22;9121;50.926;5.340;2024-02-15T00:56:17;13.10;99.90
17992;DHT22;9121;50.926;5.340;2024-02-15T00:58:44;13.10;99.90
17992;DHT22;9121;50.926;5.340;2024-02-15T01:01:11;13.10;99.90
17992;DHT22;9121;50.926;5.340;2024-02-15T01:03:38;13.10;99.90
17992;DHT22;9121;50.926;5.340;2024-02-15T01:06:05;13.10;99.90
17992;DHT22;9121;50.926;5.340;2024-02-15T01:08:33;13.00;99.90
17992;DHT22;9121;50.926;5.340;2024-02-15T01:11:00;13.00;99.90
17992;DHT22;9121;50.926;5.340;2024-02-15T01:13:28;13.10;99.90
17992;DHT22;9121;50.926;5.340;2024-02-15T01:15:55;13.10;99.90
17992;DHT22;9121;50.926;5.340;2024-02-15T01:18:22;13.10;99.90
17992;DHT22;9121;50.926;5.340;2024-02-15T01:20:49;13.10;99.90
17992;DHT22;9121;50.926;5.340;2024-02-15T01:23:18;13.10;99.90
17992;DHT22;9121;50.926;5.340;2024-02-15T01:25:45;13.00;99.90
17992;DHT22;9121;50.926;5.340;2024-02-15T01:28:12;13.10;99.90
17992;DHT22;9121;50.926;5.340;2024-02-15T01:30:41;13.10;99.90
17992;DHT22;9121;50.926;5.340;2024-02-15T01:33:09;13.10;99.90
17992;DHT22;9121;50.926;5.340;2024-02-15T01:35:37;13.10;99.90
17992;DHT22;9121;50.926;5.340;2024-02-15T01:38:03;13.10;99.90
17992;DHT22;9121;50.926;5.340;2024-02-15T01:40:31;13.10;99.90
17992;DHT22;9121;50.926;5.340;2024-02-15T01:42:58;13.10;99.90
17992;DHT22;9121;50.926;5.340;2024-02-15T01:45:26;13.20;99.90
17992;DHT22;9121;50.926;5.340;2024-02-15T01:47:55;13.20;99.90
17992;DHT22;9121;50.926;5.340;2024-02-15T01:50:23;13.20;99.90
17992;DHT22;9121;50.926;5.340;2024-02-15T01:52:52;13.20;99.90
17992;DHT22;9121;50.926;5.340;2024-02-15T01:55:22;13.20;99.90
17992;DHT22;9121;50.926;5.340;2024-02-15T01:57:49;13.20;99.90
17992;DHT22;9121;50.926;5.340;2024-02-15T02:00:18;13.20;99.90
17992;DHT22;9121;50.926;5.340;2024-02-15T02:02:46;13.30;99.90
17992;DHT22;9121;50.926;5.340;2024-02-15T02:05:14;13.30;99.90
17992;DHT22;9121;50.926;5.340;2024-02-15T02:07:41;13.30;99.90
17992;DHT22;9121;50.926;5.340;2024-02-15T02:10:09;13.30;99.90
17992;DHT22;9121;50.926;5.340;2024-02-15T02:12:38;13.30;99.90
17992;DHT22;9121;50.926;5.340;2024-02-15T02:15:06;13.30;99.90
17992;DHT22;9121;50.926;5.340;2024-02-15T02:17:33;13.30;99.90
17992;DHT22;9121;50.926;5.340;2024-02-15T02:20:01;13.30;99.90
17992;DHT22;9121;50.926;5.340;2024-02-15T02:22:35;13.30;99.90
17992;DHT22;9121;50.926;5.340;2024-02-15T02:25:06;13.30;99.90
17992;DHT22;9121;50.926;5.340;2024-02-15T02:27:34;13.30;99.90
17992;DHT22;9121;50.926;5.340;2024-02-15T02:30:03;13.20;99.90
17992;DHT22;9121;50.926;5.340;2024-02-15T02:32:32;13.20;99.90
17992;DHT22;9121;50.926;5.340;2024-02-15T02:35:01;13.20;99.90
17992;DHT22;9121;50.926;5.340;2024-02-15T02:37:29;13.20;99.90
17992;DHT22;9121;50.926;5.340;2024-02-15T02:39:56;13.20;99.90
17992;DHT22;9121;50.926;5.340;2024-02-15T02:42:24;13.20;99.90
17992;DHT22;9121;50.926;5.340;2024-02-15T02:44:51;13.20;99.90
17992;DHT22;9121;50.926;5.340;2024-02-15T02:47:18;13.20;99.90
17992;DHT22;9121;50.926;5.340;2024-02-15T02:49:45;13.20;99.90
17992;DHT22;9121;50.926;5.340;2024-02-15T02:52:12;13.30;99.90
17992;DHT22;9121;50.926;5.340;2024-02-15T02:54:38;13.30;99.90
17992;DHT22;9121;50.926;5.340;2024-02-15T02:57:06;13.30;99.90
17992;DHT22;9121;50.926;5.340;2024-02-15T02:59:35;13.30;99.90
17992;DHT22;9121;50.926;5.340;2024-02-15T03:02:05;13.30;99.90
17992;DHT22;9121;50.926;5.340;2024-02-15T03:04:33;13.30;99.90
17992;DHT22;9121;50.926;5.340;2024-02-15T03:07:00;13.30;99.90
17992;DHT22;9121;50.926;5.340;2024-02-15T03:09:27;13.30;99.90
17992;DHT22;9121;50.926;5.340;2024-02-15T03:11:55;13.20;99.90
17992;DHT22;9121;50.926;5.340;2024-02-15T03:14:22;13.20;99.90
17992;DHT22;9121;50.926;5.340;2024-02-15T03:16:52;13.30;99.90
17992;DHT22;9121;50.926;5.340;2024-02-15T03:19:21;13.30;99.90
17992;DHT22;9121;50.926;5.340;2024-02-15T03:21:49;13.20;99.90
17992;DHT22;9121;50.926;5.340;2024-02-15T03:24:18;13.20;99.90
17992;DHT22;9121;50.926;5.340;2024-02-15T03:26:46;13.20;99.90
17992;DHT22;9121;50.926;5.340;2024-02-15T03:29:12;13.30;99.90
17992;DHT22;9121;50.926;5.340;2024-02-15T03:31:39;13.30;99.90
17992;DHT22;9121;50.926;5.340;2024-02-15T03:34:08;13.30;99.90
17992;DHT22;9121;50.926;5.340;2024-02-15T03:36:36;13.30;99.90
17992;DHT22;9121;50.926;5.340;2024-02-15T03:39:03;13.30;99.90
17992;DHT22;9121;50.926;5.340;2024-02-15T03:41:31;13.30;99.90
17992;DHT22;9121;50.926;5.340;2024-02-15T03:43:58;13.30;99.90
17992;DHT22;9121;50.926;5.340;2024-02-15T03:46:26;13.30;99.90
17992;DHT22;9121;50.926;5.340;2024-02-15T03:48:53;13.40;99.90
17992;DHT22;9121;50.926;5.340;2024-02-15T03:51:23;13.30;99.90
17992;DHT22;9121;50.926;5.340;2024-02-15T03:53:50;13.30;99.90
17992;DHT22;9121;50.926;5.340;2024-02-15T03:56:17;13.30;99.90
17992;DHT22;9121;50.926;5.340;2024-02-15T03:58:45;13.30;99.90
17992;DHT22;9121;50.926;5.340;2024-02-15T04:01:12;13.30;99.90
17992;DHT22;9121;50.926;5.340;2024-02-15T04:03:41;13.30;99.90
17992;DHT22;9121;50.926;5.340;2024-02-15T04:06:08;13.20;99.90
17992;DHT22;9121;50.926;5.340;2024-02-15T04:08:38;13.20;99.90
17992;DHT22;9121;50.926;5.340;2024-02-15T04:11:05;13.20;99.90
17992;DHT22;9121;50.926;5.340;2024-02-15T04:13:33;13.10;99.90
17992;DHT22;9121;50.926;5.340;2024-02-15T04:16:00;13.10;99.90
17992;DHT22;9121;50.926;5.340;2024-02-15T04:18:28;13.00;99.90
17992;DHT22;9121;50.926;5.340;2024-02-15T04:20:58;13.00;99.90
17992;DHT22;9121;50.926;5.340;2024-02-15T04:23:24;13.00;99.90
17992;DHT22;9121;50.926;5.340;2024-02-15T04:25:53;13.00;99.90
17992;DHT22;9121;50.926;5.340;2024-02-15T04:28:20;13.00;99.90
17992;DHT22;9121;50.926;5.340;2024-02-15T04:30:47;13.00;99.90
17992;DHT22;9121;50.926;5.340;2024-02-15T04:33:14;13.00;99.90
17992;DHT22;9121;50.926;5.340;2024-02-15T04:35:42;12.90;99.90
17992;DHT22;9121;50.926;5.340;2024-02-15T04:38:09;12.90;99.90
17992;DHT22;9121;50.926;5.340;2024-02-15T04:40:36;12.90;99.90
17992;DHT22;9121;50.926;5.340;2024-02-15T04:43:06;13.00;99.90
17992;DHT22;9121;50.926;5.340;2024-02-15T04:45:34;12.90;99.90
17992;DHT22;9121;50.926;5.340;2024-02-15T04:48:01;13.00;99.90
17992;DHT22;9121;50.926;5.340;2024-02-15T04:50:28;13.00;99.90
17992;DHT22;9121;50.926;5.340;2024-02-15T04:52:56;13.00;99.90
17992;DHT22;9121;50.926;5.340;2024-02-15T04:55:23;13.00;99.90
17992;DHT22;9121;50.926;5.340;2024-02-15T04:57:52;13.00;99.90
17992;DHT22;9121;50.926;5.340;2024-02-15T05:00:23;12.90;99.90
17992;DHT22;9121;50.926;5.340;2024-02-15T05:02:52;12.90;99.90
17992;DHT22;9121;50.926;5.340;2024-02-15T05:05:19;13.00;99.90
17992;DHT22;9121;50.926;5.340;2024-02-15T05:07:47;12.90;99.90
17992;DHT22;9121;50.926;5.340;2024-02-15T05:10:16;13.00;99.90
17992;DHT22;9121;50.926;5.340;2024-02-15T05:12:43;13.00;99.90
17992;DHT22;9121;50.926;5.340;2024-02-15T05:15:10;13.00;99.90
17992;DHT22;9121;50.926;5.340;2024-02-15T05:17:40;13.00;99.90
17992;DHT22;9121;50.926;5.340;2024-02-15T05:20:08;13.00;99.90
17992;DHT22;9121;50.926;5.340;2024-02-15T05:22:39;13.00;99.90
17992;DHT22;9121;50.926;5.340;2024-02-15T05:25:09;13.00;99.90
17992;DHT22;9121;50.926;5.340;2024-02-15T05:27:38;13.00;99.90
17992;DHT22;9121;50.926;5.340;2024-02-15T05:30:05;13.00;99.90
17992;DHT22;9121;50.926;5.340;2024-02-15T05:32:33;13.10;99.90
17992;DHT22;9121;50.926;5.340;2024-02-15T05:35:08;13.10;99.90
17992;DHT22;9121;50.926;5.340;2024-02-15T05:37:35;13.10;99.90
17992;DHT22;9121;50.926;5.340;2024-02-15T05:40:02;13.10;99.90
17992;DHT22;9121;50.926;5.340;2024-02-15T05:42:30;13.10;99.90
17992;DHT22;9121;50.926;5.340;2024-02-15T05:45:14;13.10;99.90
17992;DHT22;9121;50.926;5.340;2024-02-15T05:47:42;13.10;99.90
17992;DHT22;9121;50.926;5.340;2024-02-15T05:50:10;13.10;99.90
17992;DHT22;9121;50.926;5.340;2024-02-15T05:52:37;13.10;99.90
17992;DHT22;9121;50.926;5.340;2024-02-15T05:55:07;13.10;99.90
17992;DHT22;9121;50.926;5.340;2024-02-15T05:57:34;13.10;99.90
17992;DHT22;9121;50.926;5.340;2024-02-15T06:00:00;13.10;99.90
17992;DHT22;9121;50.926;5.340;2024-02-15T06:02:28;13.10;99.90
17992;DHT22;9121;50.926;5.340;2024-02-15T06:04:58;13.10;99.90
17992;DHT22;9121;50.926;5.340;2024-02-15T06:07:31;13.10;99.90
17992;DHT22;9121;50.926;5.340;2024-02-15T06:09:58;13.10;99.90
17992;DHT22;9121;50.926;5.340;2024-02-15T06:12:28;13.10;99.90
17992;DHT22;9121;50.926;5.340;2024-02-15T06:14:55;13.20;99.90
17992;DHT22;9121;50.926;5.340;2024-02-15T06:17:22;13.10;99.90
17992;DHT22;9121;50.926;5.340;2024-02-15T06:19:50;13.20;99.90
17992;DHT22;9121;50.926;5.340;2024-02-15T06:22:17;13.10;99.90
17992;DHT22;9121;50.926;5.340;2024-02-15T06:24:45;13.20;99.90
17992;DHT22;9121;50.926;5.340;2024-02-15T06:27:12;13.10;99.90
17992;DHT22;9121;50.926;5.340;2024-02-15T06:29:41;13.10;99.90
17992;DHT22;9121;50.926;5.340;2024-02-15T06:32:25;13.10;99.90
17992;DHT22;9121;50.926;5.340;2024-02-15T06:35:24;13.10;99.90
17992;DHT22;9121;50.926;5.340;2024-02-15T06:38:08;13.00;99.90
17992;DHT22;9121;50.926;5.340;2024-02-15T06:40:54;13.00;99.90
17992;DHT22;9121;50.926;5.340;2024-02-15T06:43:21;13.00;99.90
17992;DHT22;9121;50.926;5.340;2024-02-15T06:45:48;13.00;99.90
17992;DHT22;9121;50.926;5.340;2024-02-15T06:48:16;13.00;99.90
17992;DHT22;9121;50.926;5.340;2024-02-15T06:50:43;13.00;99.90
17992;DHT22;9121;50.926;5.340;2024-02-15T06:53:14;13.00;99.90
17992;DHT22;9121;50.926;5.340;2024-02-15T06:55:41;13.00;99.90
17992;DHT22;9121;50.926;5.340;2024-02-15T06:58:09;13.00;99.90
17992;DHT22;9121;50.926;5.340;2024-02-15T07:00:38;13.00;99.90
17992;DHT22;9121;50.926;5.340;2024-02-15T07:03:05;13.00;99.90
17992;DHT22;9121;50.926;5.340;2024-02-15T07:05:33;13.00;99.90
17992;DHT22;9121;50.926;5.340;2024-02-15T07:08:00;13.00;99.90
17992;DHT22;9121;50.926;5.340;2024-02-15T07:10:27;13.00;99.90
17992;DHT22;9121;50.926;5.340;2024-02-15T07:12:57;13.00;99.90
17992;DHT22;9121;50.926;5.340;2024-02-15T07:15:25;13.00;99.90
17992;DHT22;9121;50.926;5.340;2024-02-15T07:17:52;13.00;99.90
17992;DHT22;9121;50.926;5.340;2024-02-15T07:20:20;13.00;99.90
17992;DHT22;9121;50.926;5.340;2024-02-15T07:22:48;13.10;99.90
17992;DHT22;9121;50.926;5.340;2024-02-15T07:25:15;13.10;99.90
17992;DHT22;9121;50.926;5.340;2024-02-15T07:27:43;13.10;99.90
17992;DHT22;9121;50.926;5.340;2024-02-15T07:30:11;13.10;99.90
17992;DHT22;9121;50.926;5.340;2024-02-15T07:32:40;13.10;99.90
17992;DHT22;9121;50.926;5.340;2024-02-15T07:35:07;13.10;99.90
17992;DHT22;9121;50.926;5.340;2024-02-15T07:37:35;13.10;99.90
17992;DHT22;9121;50.926;5.340;2024-02-15T07:40:02;13.10;99.90
17992;DHT22;9121;50.926;5.340;2024-02-15T07:42:29;13.20;99.90
17992;DHT22;9121;50.926;5.340;2024-02-15T07:44:56;13.20;99.90
17992;DHT22;9121;50.926;5.340;2024-02-15T07:47:23;13.20;99.90
17992;DHT22;9121;50.926;5.340;2024-02-15T07:49:53;13.20;99.90
17992;DHT22;9121;50.926;5.340;2024-02-15T07:52:20;13.30;99.90
17992;DHT22;9121;50.926;5.340;2024-02-15T07:54:47;13.30;99.90
17992;DHT22;9121;50.926;5.340;2024-02-15T07:57:14;13.30;99.90
17992;DHT22;9121;50.926;5.340;2024-02-15T07:59:44;13.40;99.90
17992;DHT22;9121;50.926;5.340;2024-02-15T08:02:10;13.40;99.90
17992;DHT22;9121;50.926;5.340;2024-02-15T08:04:38;13.40;99.90
17992;DHT22;9121;50.926;5.340;2024-02-15T08:07:08;13.50;99.90
17992;DHT22;9121;50.926;5.340;2024-02-15T08:09:37;13.50;99.90
17992;DHT22;9121;50.926;5.340;2024-02-15T08:12:04;13.60;99.90
17992;DHT22;9121;50.926;5.340;2024-02-15T08:14:31;13.60;99.90
17992;DHT22;9121;50.926;5.340;2024-02-15T08:16:58;13.60;99.90
17992;DHT22;9121;50.926;5.340;2024-02-15T08:19:26;13.70;99.90
17992;DHT22;9121;50.926;5.340;2024-02-15T08:21:54;13.70;99.90
17992;DHT22;9121;50.926;5.340;2024-02-15T08:24:23;13.70;99.90
17992;DHT22;9121;50.926;5.340;2024-02-15T08:26:50;13.70;99.90
17992;DHT22;9121;50.926;5.340;2024-02-15T08:29:18;13.70;99.90
17992;DHT22;9121;50.926;5.340;2024-02-15T08:31:45;13.80;99.90
17992;DHT22;9121;50.926;5.340;2024-02-15T08:34:14;13.80;99.90
17992;DHT22;9121;50.926;5.340;2024-02-15T08:36:44;13.90;99.90
17992;DHT22;9121;50.926;5.340;2024-02-15T08:39:10;13.90;99.90
17992;DHT22;9121;50.926;5.340;2024-02-15T08:41:39;13.90;99.90
17992;DHT22;9121;50.926;5.340;2024-02-15T08:44:06;13.90;99.90
17992;DHT22;9121;50.926;5.340;2024-02-15T08:46:37;13.90;99.90
17992;DHT22;9121;50.926;5.340;2024-02-15T08:49:04;14.00;99.90
17992;DHT22;9121;50.926;5.340;2024-02-15T08:51:31;14.00;99.90
17992;DHT22;9121;50.926;5.340;2024-02-15T08:53:58;14.00;99.90
17992;DHT22;9121;50.926;5.340;2024-02-15T08:56:26;14.10;99.90
17992;DHT22;9121;50.926;5.340;2024-02-15T08:58:54;14.10;99.90
17992;DHT22;9121;50.926;5.340;2024-02-15T09:01:23;14.10;99.90
17992;DHT22;9121;50.926;5.340;2024-02-15T09:03:50;14.10;99.90
17992;DHT22;9121;50.926;5.340;2024-02-15T09:06:17;14.20;99.90
17992;DHT22;9121;50.926;5.340;2024-02-15T09:08:44;14.20;99.90
17992;DHT22;9121;50.926;5.340;2024-02-15T09:11:11;14.20;99.90
17992;DHT22;9121;50.926;5.340;2024-02-15T09:13:39;14.30;99.90
17992;DHT22;9121;50.926;5.340;2024-02-15T09:16:07;14.30;99.90
17992;DHT22;9121;50.926;5.340;2024-02-15T09:18:34;14.40;99.90
17992;DHT22;9121;50.926;5.340;2024-02-15T09:21:01;14.50;99.90
17992;DHT22;9121;50.926;5.340;2024-02-15T09:23:30;14.50;99.90
17992;DHT22;9121;50.926;5.340;2024-02-15T09:25:57;14.60;99.90
17992;DHT22;9121;50.926;5.340;2024-02-15T09:28:24;14.70;99.90
17992;DHT22;9121;50.926;5.340;2024-02-15T09:30:51;14.70;99.90
17992;DHT22;9121;50.926;5.340;2024-02-15T09:33:20;14.80;99.90
17992;DHT22;9121;50.926;5.340;2024-02-15T09:35:47;14.80;99.90
17992;DHT22;9121;50.926;5.340;2024-02-15T09:38:14;14.90;99.90
17992;DHT22;9121;50.926;5.340;2024-02-15T09:40:42;15.00;99.90
17992;DHT22;9121;50.926;5.340;2024-02-15T09:43:11;15.10;99.90
17992;DHT22;9121;50.926;5.340;2024-02-15T09:45:39;15.10;99.90
17992;DHT22;9121;50.926;5.340;2024-02-15T09:48:07;15.20;99.90
17992;DHT22;9121;50.926;5.340;2024-02-15T09:50:41;15.20;99.90
17992;DHT22;9121;50.926;5.340;2024-02-15T09:53:09;15.30;99.90
17992;DHT22;9121;50.926;5.340;2024-02-15T09:55:36;15.30;99.90
17992;DHT22;9121;50.926;5.340;2024-02-15T09:58:03;15.40;99.90
17992;DHT22;9121;50.926;5.340;2024-02-15T10:00:31;15.40;99.90
17992;DHT22;9121;50.926;5.340;2024-02-15T10:03:00;15.50;99.90
17992;DHT22;9121;50.926;5.340;2024-02-15T10:05:29;15.60;99.90
17992;DHT22;9121;50.926;5.340;2024-02-15T10:07:58;15.60;99.90
17992;DHT22;9121;50.926;5.340;2024-02-15T10:10:27;15.70;99.90
17992;DHT22;9121;50.926;5.340;2024-02-15T10:12:55;15.80;99.90
17992;DHT22;9121;50.926;5.340;2024-02-15T10:15:30;15.90;99.90
17992;DHT22;9121;50.926;5.340;2024-02-15T10:17:58;15.90;99.90
17992;DHT22;9121;50.926;5.340;2024-02-15T10:20:25;16.00;99.90
17992;DHT22;9121;50.926;5.340;2024-02-15T10:22:53;16.00;99.90
17992;DHT22;9121;50.926;5.340;2024-02-15T10:25:37;16.00;99.90
17992;DHT22;9121;50.926;5.340;2024-02-15T10:28:04;16.00;99.90
17992;DHT22;9121;50.926;5.340;2024-02-15T10:30:33;16.00;99.90
17992;DHT22;9121;50.926;5.340;2024-02-15T10:33:01;16.10;99.90
17992;DHT22;9121;50.926;5.340;2024-02-15T10:35:28;16.10;99.90
17992;DHT22;9121;50.926;5.340;2024-02-15T10:38:05;16.20;99.90
17992;DHT22;9121;50.926;5.340;2024-02-15T10:40:35;16.20;99.90
17992;DHT22;9121;50.926;5.340;2024-02-15T10:43:03;16.20;99.90
17992;DHT22;9121;50.926;5.340;2024-02-15T10:45:31;16.20;99.90
17992;DHT22;9121;50.926;5.340;2024-02-15T10:47:58;16.30;99.90
17992;DHT22;9121;50.926;5.340;2024-02-15T10:50:25;16.30;99.90
17992;DHT22;9121;50.926;5.340;2024-02-15T10:52:55;16.40;99.90
17992;DHT22;9121;50.926;5.340;2024-02-15T10:55:29;16.40;99.90
17992;DHT22;9121;50.926;5.340;2024-02-15T10:58:01;16.50;99.90
17992;DHT22;9121;50.926;5.340;2024-02-15T11:00:32;16.60;99.90
17992;DHT22;9121;50.926;5.340;2024-02-15T11:03:04;16.60;99.90
17992;DHT22;9121;50.926;5.340;2024-02-15T11:05:35;16.70;99.90
17992;DHT22;9121;50.926;5.340;2024-02-15T11:08:05;16.70;99.90
17992;DHT22;9121;50.926;5.340;2024-02-15T11:10:33;16.70;99.90
17992;DHT22;9121;50.926;5.340;2024-02-15T11:13:02;16.70;99.90
17992;DHT22;9121;50.926;5.340;2024-02-15T11:15:51;16.70;99.90
17992;DHT22;9121;50.926;5.340;2024-02-15T11:18:43;16.70;99.90
17992;DHT22;9121;50.926;5.340;2024-02-15T11:21:11;16.70;99.90
17992;DHT22;9121;50.926;5.340;2024-02-15T11:23:38;16.70;99.90
17992;DHT22;9121;50.926;5.340;2024-02-15T11:26:08;16.80;99.90
17992;DHT22;9121;50.926;5.340;2024-02-15T11:28:45;16.90;99.90
17992;DHT22;9121;50.926;5.340;2024-02-15T11:31:54;16.90;99.90
17992;DHT22;9121;50.926;5.340;2024-02-15T11:34:44;17.00;99.90
17992;DHT22;9121;50.926;5.340;2024-02-15T11:37:50;17.00;99.90
17992;DHT22;9121;50.926;5.340;2024-02-15T11:40:22;17.10;99.90
17992;DHT22;9121;50.926;5.340;2024-02-15T11:42:49;17.20;99.90
17992;DHT22;9121;50.926;5.340;2024-02-15T11:45:20;17.20;99.90
17992;DHT22;9121;50.926;5.340;2024-02-15T11:47:48;17.20;99.90
17992;DHT22;9121;50.926;5.340;2024-02-15T11:50:16;17.10;99.90
17992;DHT22;9121;50.926;5.340;2024-02-15T11:52:44;17.00;99.90
17992;DHT22;9121;50.926;5.340;2024-02-15T11:55:12;17.10;99.90
17992;DHT22;9121;50.926;5.340;2024-02-15T11:57:40;17.00;99.90
17992;DHT22;9121;50.926;5.340;2024-02-15T12:00:24;17.10;99.90
17992;DHT22;9121;50.926;5.340;2024-02-15T12:03:09;17.20;99.90
17992;DHT22;9121;50.926;5.340;2024-02-15T12:05:54;17.10;99.90
17992;DHT22;9121;50.926;5.340;2024-02-15T12:08:38;17.20;99.90
17992;DHT22;9121;50.926;5.340;2024-02-15T12:11:23;17.30;99.90
17992;DHT22;9121;50.926;5.340;2024-02-15T12:14:11;17.30;99.90
17992;DHT22;9121;50.926;5.340;2024-02-15T12:17:02;17.40;99.90
17992;DHT22;9121;50.926;5.340;2024-02-15T12:19:48;17.40;99.90
17992;DHT22;9121;50.926;5.340;2024-02-15T12:22:18;17.40;99.90
17992;DHT22;9121;50.926;5.340;2024-02-15T12:24:53;17.40;99.90
17992;DHT22;9121;50.926;5.340;2024-02-15T12:27:21;17.50;99.90
17992;DHT22;9121;50.926;5.340;2024-02-15T12:29:58;17.60;99.90
17992;DHT22;9121;50.926;5.340;2024-02-15T12:32:27;17.60;99.90
17992;DHT22;9121;50.926;5.340;2024-02-15T12:35:10;17.60;99.90
17992;DHT22;9121;50.926;5.340;2024-02-15T12:37:38;17.60;99.90
17992;DHT22;9121;50.926;5.340;2024-02-15T12:40:17;17.50;99.90
17992;DHT22;9121;50.926;5.340;2024-02-15T12:42:44;17.50;99.90
17992;DHT22;9121;50.926;5.340;2024-02-15T12:45:16;17.50;99.90
17992;DHT22;9121;50.926;5.340;2024-02-15T12:47:48;17.50;99.90
17992;DHT22;9121;50.926;5.340;2024-02-15T12:50:17;17.50;99.90
17992;DHT22;9121;50.926;5.340;2024-02-15T12:52:46;17.50;99.90
17992;DHT22;9121;50.926;5.340;2024-02-15T12:55:15;17.50;99.90
17992;DHT22;9121;50.926;5.340;2024-02-15T12:57:44;17.50;99.90
17992;DHT22;9121;50.926;5.340;2024-02-15T13:00:18;17.60;99.90
17992;DHT22;9121;50.926;5.340;2024-02-15T13:02:48;17.60;99.90
17992;DHT22;9121;50.926;5.340;2024-02-15T13:05:16;17.60;99.90
17992;DHT22;9121;50.926;5.340;2024-02-15T13:07:44;17.50;99.90
17992;DHT22;9121;50.926;5.340;2024-02-15T13:10:11;17.50;99.90
17992;DHT22;9121;50.926;5.340;2024-02-15T13:12:40;17.50;99.90
17992;DHT22;9121;50.926;5.340;2024-02-15T13:15:09;17.40;99.90
17992;DHT22;9121;50.926;5.340;2024-02-15T13:17:40;17.40;99.90
17992;DHT22;9121;50.926;5.340;2024-02-15T13:20:09;17.30;99.90
17992;DHT22;9121;50.926;5.340;2024-02-15T13:22:39;17.30;99.90
17992;DHT22;9121;50.926;5.340;2024-02-15T13:25:06;17.30;99.90
17992;DHT22;9121;50.926;5.340;2024-02-15T13:27:34;17.20;99.90
17992;DHT22;9121;50.926;5.340;2024-02-15T13:30:02;17.10;99.90
17992;DHT22;9121;50.926;5.340;2024-02-15T13:32:34;17.10;99.90
17992;DHT22;9121;50.926;5.340;2024-02-15T13:35:02;17.00;99.90
17992;DHT22;9121;50.926;5.340;2024-02-15T13:37:40;17.10;99.90
17992;DHT22;9121;50.926;5.340;2024-02-15T13:40:10;17.00;99.90
17992;DHT22;9121;50.926;5.340;2024-02-15T13:42:42;17.00;99.90
17992;DHT22;9121;50.926;5.340;2024-02-15T13:45:13;17.20;99.90
17992;DHT22;9121;50.926;5.340;2024-02-15T13:47:40;17.70;99.90
17992;DHT22;9121;50.926;5.340;2024-02-15T13:50:08;18.20;99.90
17992;DHT22;9121;50.926;5.340;2024-02-15T13:52:35;18.30;99.90
17992;DHT22;9121;50.926;5.340;2024-02-15T13:55:04;18.40;99.90
17992;DHT22;9121;50.926;5.340;2024-02-15T13:57:31;18.20;99.90
17992;DHT22;9121;50.926;5.340;2024-02-15T13:59:58;18.10;99.90
17992;DHT22;9121;50.926;5.340;2024-02-15T14:02:25;17.90;99.90
17992;DHT22;9121;50.926;5.340;2024-02-15T14:04:52;17.80;99.90
17992;DHT22;9121;50.926;5.340;2024-02-15T14:07:19;17.80;99.90
17992;DHT22;9121;50.926;5.340;2024-02-15T14:09:46;18.10;99.90
17992;DHT22;9121;50.926;5.340;2024-02-15T14:12:14;18.50;99.90
17992;DHT22;9121;50.926;5.340;2024-02-15T14:14:41;18.50;99.90
17992;DHT22;9121;50.926;5.340;2024-02-15T14:17:09;18.70;99.90
17992;DHT22;9121;50.926;5.340;2024-02-15T14:19:36;18.70;99.90
17992;DHT22;9121;50.926;5.340;2024-02-15T14:22:03;18.60;99.90
17992;DHT22;9121;50.926;5.340;2024-02-15T14:24:34;18.70;99.90
17992;DHT22;9121;50.926;5.340;2024-02-15T14:27:04;18.70;99.90
17992;DHT22;9121;50.926;5.340;2024-02-15T14:29:32;18.60;99.90
17992;DHT22;9121;50.926;5.340;2024-02-15T14:32:03;18.50;99.90
17992;DHT22;9121;50.926;5.340;2024-02-15T14:34:48;18.50;99.90
17992;DHT22;9121;50.926;5.340;2024-02-15T14:37:15;18.30;99.90
17992;DHT22;9121;50.926;5.340;2024-02-15T14:39:45;18.10;99.90
17992;DHT22;9121;50.926;5.340;2024-02-15T14:42:12;18.00;99.90
17992;DHT22;9121;50.926;5.340;2024-02-15T14:44:41;18.00;99.90
17992;DHT22;9121;50.926;5.340;2024-02-15T14:47:08;18.00;99.90
17992;DHT22;9121;50.926;5.340;2024-02-15T14:49:35;18.20;99.90
17992;DHT22;9121;50.926;5.340;2024-02-15T14:52:02;18.30;99.90
17992;DHT22;9121;50.926;5.340;2024-02-15T14:54:30;18.30;99.90
17992;DHT22;9121;50.926;5.340;2024-02-15T14:56:58;18.20;99.90
17992;DHT22;9121;50.926;5.340;2024-02-15T14:59:26;18.20;99.90
17992;DHT22;9121;50.926;5.340;2024-02-15T15:01:54;18.10;99.90
17992;DHT22;9121;50.926;5.340;2024-02-15T15:04:23;17.90;99.90
17992;DHT22;9121;50.926;5.340;2024-02-15T15:06:52;17.90;99.90
17992;DHT22;9121;50.926;5.340;2024-02-15T15:09:36;17.80;99.90
17992;DHT22;9121;50.926;5.340;2024-02-15T15:12:21;17.80;99.90
17992;DHT22;9121;50.926;5.340;2024-02-15T15:15:05;17.70;99.90
17992;DHT22;9121;50.926;5.340;2024-02-15T15:17:34;17.60;99.90
17992;DHT22;9121;50.926;5.340;2024-02-15T15:20:02;17.30;99.90
17992;DHT22;9121;50.926;5.340;2024-02-15T15:22:34;17.30;99.90
17992;DHT22;9121;50.926;5.340;2024-02-15T15:25:01;17.30;99.90
17992;DHT22;9121;50.926;5.340;2024-02-15T15:27:29;17.20;99.90
17992;DHT22;9121;50.926;5.340;2024-02-15T15:29:57;17.10;99.90
17992;DHT22;9121;50.926;5.340;2024-02-15T15:32:24;17.00;99.90
17992;DHT22;9121;50.926;5.340;2024-02-15T15:34:52;16.80;99.90
17992;DHT22;9121;50.926;5.340;2024-02-15T15:37:20;16.80;99.90
17992;DHT22;9121;50.926;5.340;2024-02-15T15:39:48;16.70;99.90
17992;DHT22;9121;50.926;5.340;2024-02-15T15:42:15;16.60;99.90
17992;DHT22;9121;50.926;5.340;2024-02-15T15:44:43;16.60;99.90
17992;DHT22;9121;50.926;5.340;2024-02-15T15:47:10;16.50;99.90
17992;DHT22;9121;50.926;5.340;2024-02-15T15:49:38;16.50;99.90
17992;DHT22;9121;50.926;5.340;2024-02-15T15:52:06;16.50;99.90
17992;DHT22;9121;50.926;5.340;2024-02-15T15:54:33;16.40;99.90
17992;DHT22;9121;50.926;5.340;2024-02-15T15:57:00;16.30;99.90
17992;DHT22;9121;50.926;5.340;2024-02-15T15:59:29;16.20;99.90